createdAt,value
2019-05-20T01:57:01.379Z,0.1
2019-05-20T01:59:01.099Z,0.2
2019-05-20T02:00:01.099Z,0.3
2019-05-20T02:02:01.282Z,0.4
2019-05-20T02:03:01.101Z,0.5
2019-05-20T02:05:01.105Z,0.6
2019-05-20T02:06:06.110Z,0.7
2019-05-20T02:08:01.276Z,0.8
2019-05-20T02:09:01.108Z,0.9
2019-05-20T02:10:01.100Z,1.0
2019-05-20T02:11:06.103Z,1.1
2019-05-20T02:12:01.106Z,1.2
2019-05-20T02:13:01.313Z,1.3
2019-05-20T02:14:01.154Z,1.4
2019-05-20T02:15:01.106Z,1.5
2019-05-20T02:16:01.140Z,1.7
2019-05-20T02:17:02.734Z,1.8
2019-05-20T02:18:01.259Z,2.0
2019-05-20T02:19:01.110Z,2.2
2019-05-20T02:20:01.105Z,2.5
2019-05-20T02:21:01.136Z,2.7
2019-05-20T02:22:01.970Z,3.1
2019-05-20T02:23:01.259Z,3.5
2019-05-20T02:24:01.104Z,3.9
2019-05-20T02:25:01.111Z,4.4
2019-05-20T02:27:01.089Z,5.0
2019-05-20T02:28:01.255Z,5.7
2019-05-20T02:29:01.096Z,6.5
2019-05-20T02:30:01.104Z,7.3
2019-05-20T02:31:01.131Z,8.3
2019-05-20T02:32:01.100Z,9.6
2019-05-20T02:33:01.244Z,11.0
2019-05-20T02:34:01.099Z,12.5
2019-05-20T02:35:01.098Z,14.3
2019-05-20T02:36:01.096Z,16.1
2019-05-20T02:37:01.101Z,18.3
2019-05-20T02:38:01.246Z,20.6
2019-05-20T02:39:01.103Z,23.2
2019-05-20T02:40:01.101Z,26.1
2019-05-20T02:41:01.141Z,29.6
2019-05-20T02:42:01.100Z,33.2
2019-05-20T02:43:01.250Z,37.7
2019-05-20T02:44:01.101Z,42.8
2019-05-20T02:45:01.103Z,48.2
2019-05-20T02:46:01.135Z,54.1
2019-05-20T02:47:01.139Z,61.8
2019-05-20T02:49:01.266Z,71.7
2019-05-20T02:50:01.092Z,84.1
2019-05-20T02:51:01.089Z,97.1
2019-05-20T02:52:01.109Z,112.7
2019-05-20T02:53:01.106Z,130.9
2019-05-20T02:54:01.246Z,148.2
2019-05-20T02:55:01.092Z,166.8
2019-05-20T02:56:01.098Z,187.4
2019-05-20T02:57:01.092Z,209.1
2019-05-20T02:58:01.901Z,234.4
2019-05-20T02:59:01.253Z,264.3
2019-05-20T03:00:01.112Z,296.6
2019-05-20T03:01:01.093Z,331.0
2019-05-20T03:02:01.095Z,369.8
2019-05-20T03:03:01.110Z,409.5
2019-05-20T03:04:11.306Z,448.3
2019-05-20T03:05:01.096Z,481.7
2019-05-20T03:06:01.150Z,519.8
2019-05-20T03:07:01.126Z,558.7
2019-05-20T03:08:01.104Z,601.1
2019-05-20T03:09:01.320Z,649.3
2019-05-20T03:10:01.108Z,700.0
2019-05-20T03:11:01.104Z,752.0
2019-05-20T03:12:01.136Z,807.9
2019-05-20T03:13:01.143Z,865.5
2019-05-20T03:14:01.252Z,923.6
2019-05-20T03:15:01.477Z,990.3
2019-05-20T03:16:01.105Z,1059.8
2019-05-20T03:17:01.165Z,1127.6
2019-05-20T03:18:01.105Z,1204.1
2019-05-20T03:19:01.253Z,1283.4
2019-05-20T03:20:01.100Z,1380.2
2019-05-20T03:21:01.100Z,1470.9
2019-05-20T03:22:01.130Z,1564.2
2019-05-20T03:23:01.100Z,1661.3
2019-05-20T03:24:01.245Z,1773.5
2019-05-20T03:25:01.132Z,1892.8
2019-05-20T03:26:01.128Z,1992.2
2019-05-20T03:27:01.142Z,2095.3
2019-05-20T03:28:01.121Z,2216.7
2019-05-20T03:29:01.258Z,2337.3
2019-05-20T03:30:01.128Z,2452.5
2019-05-20T03:31:01.120Z,2579.6
2019-05-20T03:32:01.143Z,2701.3
2019-05-20T03:33:01.112Z,2831.7
2019-05-20T03:34:01.282Z,2957.8
2019-05-20T03:35:01.643Z,3090.8
2019-05-20T03:36:01.119Z,3219.4
2019-05-20T03:37:01.140Z,3355.9
2019-05-20T03:38:01.115Z,3493.5
2019-05-20T03:39:01.273Z,3621.7
2019-05-20T03:40:01.108Z,3744.5
2019-05-20T03:41:01.105Z,3894.0
2019-05-20T03:42:01.146Z,4041.6
2019-05-20T03:43:01.110Z,4176.7
2019-05-20T03:44:01.450Z,4328.2
2019-05-20T03:46:01.097Z,4497.7
2019-05-20T03:47:01.094Z,4650.9
2019-05-20T03:48:01.117Z,4835.1
2019-05-20T03:49:01.097Z,4975.9
2019-05-20T03:50:01.236Z,5110.2
2019-05-20T03:51:01.093Z,5243.8
2019-05-20T03:52:01.104Z,5371.2
2019-05-20T03:53:01.126Z,5477.5
2019-05-20T03:54:01.098Z,5564.5
2019-05-20T03:55:01.243Z,5673.9
2019-05-20T03:56:01.096Z,5813.7
2019-05-20T03:57:01.093Z,5943.1
2019-05-20T03:58:01.131Z,6085.9
2019-05-20T03:59:01.096Z,6230.3
2019-05-20T04:00:01.249Z,6404.5
2019-05-20T04:01:01.103Z,6558.9
2019-05-20T04:02:01.099Z,6729.3
2019-05-20T04:03:01.104Z,6874.9
2019-05-20T04:04:01.158Z,7050.3
2019-05-20T04:05:03.153Z,7283.5
2019-05-20T04:06:01.097Z,7482.1
2019-05-20T04:07:01.097Z,7657.5
2019-05-20T04:08:01.098Z,7850.2
2019-05-20T04:09:06.112Z,8062.9
2019-05-20T04:10:01.255Z,8241.3
2019-05-20T04:11:02.020Z,8366.3
2019-05-20T04:12:01.110Z,8491.3
2019-05-20T04:13:01.113Z,8596.0
2019-05-20T04:14:01.177Z,8710.3
2019-05-20T04:15:01.254Z,8779.3
2019-05-20T04:16:01.104Z,8830.7
2019-05-20T04:17:01.130Z,8886.5
2019-05-20T04:18:01.123Z,8973.0
2019-05-20T04:19:01.156Z,9060.7
2019-05-20T04:20:01.264Z,9103.7
2019-05-20T04:21:01.116Z,9169.3
2019-05-20T04:22:01.122Z,9293.6
2019-05-20T04:23:01.115Z,9437.1
2019-05-20T04:24:02.054Z,9555.9
2019-05-20T04:25:01.336Z,9754.9
2019-05-20T04:26:01.123Z,9987.5
2019-05-20T04:27:01.115Z,10296.5
2019-05-20T04:28:01.110Z,10638.8
2019-05-20T04:29:06.117Z,10983.5
2019-05-20T04:30:01.322Z,11308.2
2019-05-20T04:31:01.119Z,11745.3
2019-05-20T04:32:02.003Z,12171.7
2019-05-20T04:33:01.113Z,12488.1
2019-05-20T04:35:18.630Z,12956.9
2019-05-20T04:36:01.090Z,13344.2
2019-05-20T04:37:01.091Z,13750.5
2019-05-20T04:38:01.116Z,14113.1
2019-05-20T04:39:01.093Z,14398.8
2019-05-20T04:40:01.273Z,14800.0
2019-05-20T04:41:01.097Z,15080.5
2019-05-20T04:42:01.098Z,15365.2
2019-05-20T04:43:01.100Z,15550.9
2019-05-20T04:44:01.100Z,15689.5
2019-05-20T04:45:01.283Z,15859.7
2019-05-20T04:46:01.096Z,16137.5
2019-05-20T04:47:01.097Z,16348.9
2019-05-20T04:48:01.104Z,16659.7
2019-05-20T04:49:01.103Z,17149.0
2019-05-20T04:50:01.340Z,17472.3
2019-05-20T04:51:01.112Z,17907.3
2019-05-20T04:52:01.094Z,18208.9
2019-05-20T04:53:01.103Z,18506.5
2019-05-20T04:54:01.093Z,18968.1
2019-05-20T04:55:01.273Z,19350.6
2019-05-20T04:56:01.098Z,19719.3
2019-05-20T04:57:01.110Z,20128.6
2019-05-20T04:58:01.098Z,20647.2
2019-05-20T04:59:01.139Z,21252.4
2019-05-20T05:00:01.277Z,21557.1
2019-05-20T05:01:01.970Z,21790.3
2019-05-20T05:02:01.108Z,21926.4
2019-05-20T05:03:01.097Z,22016.5
2019-05-20T05:04:01.100Z,21975.4
2019-05-20T05:05:01.325Z,21997.5
2019-05-20T05:06:01.103Z,21919.3
2019-05-20T05:07:01.181Z,22040.9
2019-05-20T05:08:01.096Z,22125.4
2019-05-20T05:09:01.099Z,22166.5
2019-05-20T05:10:01.277Z,22279.7
2019-05-20T05:11:01.102Z,22514.2
2019-05-20T05:12:01.111Z,22771.0
2019-05-20T05:13:01.102Z,23012.3
2019-05-20T05:14:01.101Z,23094.7
2019-05-20T05:15:01.315Z,23341.3
2019-05-20T05:16:01.102Z,23636.5
2019-05-20T05:17:01.106Z,24031.5
2019-05-20T05:18:01.102Z,24317.3
2019-05-20T05:19:01.097Z,24666.1
2019-05-20T05:20:01.356Z,24887.1
2019-05-20T05:21:01.101Z,25150.2
2019-05-20T05:22:01.099Z,25366.5
2019-05-20T05:23:01.100Z,25644.3
2019-05-20T05:24:01.101Z,25879.8
2019-05-20T05:25:02.696Z,26078.7
2019-05-20T05:26:01.101Z,26324.5
2019-05-20T05:27:01.104Z,26536.7
2019-05-20T05:28:01.100Z,26653.7
2019-05-20T05:29:01.102Z,26769.1
2019-05-20T05:30:01.325Z,26875.7
2019-05-20T05:31:06.119Z,27007.7
2019-05-20T05:32:01.105Z,27227.6
2019-05-20T05:33:01.112Z,27495.9
2019-05-20T05:34:01.106Z,27805.9
2019-05-20T05:35:01.254Z,28273.1
2019-05-20T05:36:01.131Z,28756.9
2019-05-20T05:37:01.106Z,29176.9
2019-05-20T05:38:06.133Z,29801.9
2019-05-20T05:39:01.106Z,30294.5
2019-05-20T05:40:01.270Z,30513.6
2019-05-20T05:41:01.105Z,30478.5
2019-05-20T05:42:01.110Z,30308.3
2019-05-20T05:43:01.137Z,30187.2
2019-05-20T05:45:01.251Z,30407.3
2019-05-20T05:46:01.094Z,30814.1
2019-05-20T05:47:01.094Z,31224.3
2019-05-20T05:48:01.099Z,31494.3
2019-05-20T05:49:01.091Z,31801.7
2019-05-20T05:50:01.308Z,31943.6
2019-05-20T05:51:01.102Z,31938.5
2019-05-20T05:52:01.105Z,31936.8
2019-05-20T05:53:01.095Z,32078.4
2019-05-20T05:54:01.105Z,32191.6
2019-05-20T05:55:01.334Z,32283.9
2019-05-20T05:56:01.108Z,32680.7
2019-05-20T05:57:01.098Z,33224.3
2019-05-20T05:58:01.129Z,34011.7
2019-05-20T05:59:01.096Z,34631.5
2019-05-20T06:00:01.261Z,34962.3
2019-05-20T06:01:01.732Z,35557.1
2019-05-20T06:02:01.247Z,36204.1
2019-05-20T06:03:01.139Z,36755.5
2019-05-20T06:04:01.101Z,37293.1
2019-05-20T06:05:01.273Z,38064.0
2019-05-20T06:06:11.053Z,38940.9
2019-05-20T06:07:01.104Z,39987.9
2019-05-20T06:08:01.139Z,40717.1
2019-05-20T06:09:01.100Z,40997.0
2019-05-20T06:10:01.250Z,41383.7
2019-05-20T06:11:01.100Z,41760.9
2019-05-20T06:12:01.098Z,42300.5
2019-05-20T06:13:01.141Z,42611.5
2019-05-20T06:14:01.107Z,42989.5
2019-05-20T06:15:01.248Z,43564.1
2019-05-20T06:16:01.098Z,43961.2
2019-05-20T06:17:01.105Z,44348.4
2019-05-20T06:18:01.142Z,44715.8
2019-05-20T06:19:01.096Z,45292.0
2019-05-20T06:20:01.311Z,45660.1
2019-05-20T06:21:01.111Z,46054.5
2019-05-20T06:22:01.101Z,46336.8
2019-05-20T06:23:01.145Z,46955.9
2019-05-20T06:24:01.103Z,48021.2
2019-05-20T06:25:01.249Z,49058.5
2019-05-20T06:26:01.106Z,49952.3
2019-05-20T06:27:01.100Z,51107.7
2019-05-20T06:28:01.132Z,52175.4
2019-05-20T06:29:02.863Z,53026.9
2019-05-20T06:30:01.325Z,54014.4
2019-05-20T06:31:01.104Z,54437.3
2019-05-20T06:32:01.105Z,54271.7
2019-05-20T06:33:01.141Z,54719.7
2019-05-20T06:34:01.213Z,54897.1
2019-05-20T06:35:01.311Z,55154.7
2019-05-20T06:36:01.104Z,55545.9
2019-05-20T06:37:01.106Z,55837.7
2019-05-20T06:38:01.131Z,56576.1
2019-05-20T06:39:01.138Z,57139.3
2019-05-20T06:40:01.253Z,57746.5
2019-05-20T06:41:01.108Z,58036.9
2019-05-20T06:42:01.107Z,57253.7
2019-05-20T06:43:01.109Z,57093.1
2019-05-20T06:44:01.140Z,57650.1
2019-05-20T06:45:01.324Z,57356.4
2019-05-20T06:46:01.113Z,57690.9
2019-05-20T06:47:01.884Z,58086.3
2019-05-20T06:48:01.107Z,57739.2
2019-05-20T06:49:01.141Z,57415.9
2019-05-20T06:50:01.255Z,57301.9
2019-05-20T06:51:01.115Z,57009.5
2019-05-20T06:52:01.103Z,56796.5
2019-05-20T06:53:01.105Z,56406.5
2019-05-20T06:54:01.135Z,55617.4
2019-05-20T06:55:01.263Z,55152.7
2019-05-20T06:56:01.111Z,54867.1
2019-05-20T06:57:01.139Z,55221.1
2019-05-20T06:58:01.107Z,55214.4
2019-05-20T06:59:01.135Z,54827.0
2019-05-20T07:00:01.341Z,55017.5
2019-05-20T07:02:01.100Z,55455.1
2019-05-20T07:03:01.097Z,56278.5
2019-05-20T07:04:01.099Z,57362.9
2019-05-20T07:05:06.104Z,58458.2
2019-05-20T07:06:01.291Z,59327.5
2019-05-20T07:07:01.092Z,60169.5
2019-05-20T07:08:01.478Z,60974.8
2019-05-20T07:09:01.089Z,61364.8
2019-05-20T07:10:06.104Z,62153.9
2019-05-20T07:11:01.306Z,62618.7
2019-05-20T07:12:01.096Z,63284.2
2019-05-20T07:13:01.177Z,63953.7
2019-05-20T07:14:01.096Z,64519.1
2019-05-20T07:15:06.206Z,65039.8
2019-05-20T07:16:01.313Z,65535.0
2019-05-20T07:30:01.119Z,65535.0
2019-05-20T07:33:06.168Z,65425.3
2019-05-20T07:45:01.117Z,65425.3
2019-05-20T07:48:01.101Z,65535.0
2019-05-20T08:00:06.117Z,65535.0
2019-05-20T08:15:01.409Z,65535.0
2019-05-20T08:30:01.253Z,65535.0
2019-05-20T08:45:03.113Z,65535.0
2019-05-20T09:00:04.797Z,65535.0
2019-05-20T09:15:01.386Z,65535.0
2019-05-20T09:30:01.685Z,65535.0
2019-05-20T09:45:03.020Z,65535.0
2019-05-20T10:00:01.323Z,65535.0
2019-05-20T10:15:01.101Z,65535.0
2019-05-20T10:30:01.104Z,65535.0
2019-05-20T10:45:01.234Z,65535.0
2019-05-20T11:00:01.114Z,65535.0
2019-05-20T11:15:01.105Z,65535.0
2019-05-20T11:30:01.124Z,65535.0
2019-05-20T11:45:01.174Z,65535.0
2019-05-20T12:00:01.118Z,65535.0
2019-05-20T12:15:01.454Z,65535.0
2019-05-20T12:30:01.414Z,65535.0
2019-05-20T12:45:01.401Z,65535.0
2019-05-20T13:00:01.137Z,65535.0
2019-05-20T13:15:01.110Z,65535.0
2019-05-20T13:30:01.123Z,65535.0
2019-05-20T13:45:01.109Z,65535.0
2019-05-20T14:00:01.275Z,65535.0
2019-05-20T14:15:01.118Z,65535.0
2019-05-20T14:30:01.468Z,65535.0
2019-05-20T14:45:01.104Z,65535.0
2019-05-20T15:00:02.408Z,65535.0
2019-05-20T15:15:01.323Z,65535.0
2019-05-20T15:30:01.122Z,65535.0
2019-05-20T15:45:01.100Z,65535.0
2019-05-20T16:00:01.258Z,65535.0
2019-05-20T16:15:02.844Z,65535.0
2019-05-20T16:30:06.442Z,65535.0
2019-05-20T16:37:01.111Z,64339.3
2019-05-20T16:38:01.250Z,64127.1
2019-05-20T16:40:01.093Z,63631.4
2019-05-20T16:41:01.095Z,62757.6
2019-05-20T16:42:01.096Z,61404.9
2019-05-20T16:43:01.315Z,59988.9
2019-05-20T16:44:01.094Z,58561.2
2019-05-20T16:45:01.141Z,57131.8
2019-05-20T16:46:01.101Z,55709.1
2019-05-20T16:47:06.177Z,54299.4
2019-05-20T16:48:01.247Z,52897.2
2019-05-20T16:49:01.095Z,51503.9
2019-05-20T16:50:01.105Z,50127.6
2019-05-20T16:51:01.103Z,48781.3
2019-05-20T16:52:01.134Z,48642.3
2019-05-20T16:53:01.441Z,47533.1
2019-05-20T16:54:01.108Z,46234.3
2019-05-20T16:55:01.111Z,45456.3
2019-05-20T16:56:01.097Z,45083.7
2019-05-20T16:57:01.138Z,45220.0
2019-05-20T16:58:01.259Z,45471.2
2019-05-20T16:59:02.231Z,45763.1
2019-05-20T17:00:01.086Z,46072.3
2019-05-20T17:01:01.105Z,46389.9
2019-05-20T17:02:01.100Z,46720.5
2019-05-20T17:03:01.255Z,47066.7
2019-05-20T17:05:01.054Z,47447.4
2019-05-20T17:06:01.107Z,47823.1
2019-05-20T17:07:01.089Z,48175.7
2019-05-20T17:08:01.087Z,48511.5
2019-05-20T17:09:01.864Z,48842.4
2019-05-20T17:10:01.087Z,49174.0
2019-05-20T17:11:01.111Z,49462.3
2019-05-20T17:12:01.084Z,49709.7
2019-05-20T17:13:01.086Z,49896.1
2019-05-20T17:14:01.299Z,50012.4
2019-05-20T17:15:01.102Z,50080.3
2019-05-20T17:16:01.108Z,50118.4
2019-05-20T17:17:01.089Z,50149.2
2019-05-20T17:18:01.090Z,50162.0
2019-05-20T17:19:01.239Z,50140.3
2019-05-20T17:20:01.115Z,50069.0
2019-05-20T17:21:01.139Z,49978.8
2019-05-20T17:22:01.087Z,49868.9
2019-05-20T17:23:01.098Z,49737.9
2019-05-20T17:24:01.308Z,49577.8
2019-05-20T17:25:01.093Z,49381.8
2019-05-20T17:26:01.090Z,49193.3
2019-05-20T17:27:01.092Z,49019.9
2019-05-20T17:28:01.093Z,48881.7
2019-05-20T17:29:01.238Z,48732.6
2019-05-20T17:30:01.093Z,48575.9
2019-05-20T17:31:01.091Z,48406.7
2019-05-20T17:32:01.092Z,48195.3
2019-05-20T17:33:01.089Z,47942.5
2019-05-20T17:34:01.245Z,47680.3
2019-05-20T17:35:01.095Z,47381.6
2019-05-20T17:36:01.069Z,47057.2
2019-05-20T17:37:01.119Z,46702.3
2019-05-20T17:38:01.094Z,46328.2
2019-05-20T17:39:01.245Z,45938.4
2019-05-20T17:40:02.211Z,45528.7
2019-05-20T17:41:01.094Z,45101.0
2019-05-20T17:42:01.111Z,44650.0
2019-05-20T17:43:01.094Z,44177.7
2019-05-20T17:44:01.374Z,43730.3
2019-05-20T17:45:01.096Z,43312.5
2019-05-20T17:46:01.119Z,42924.5
2019-05-20T17:47:01.097Z,42576.8
2019-05-20T17:48:01.099Z,42271.5
2019-05-20T17:49:01.264Z,41993.9
2019-05-20T17:50:01.095Z,41768.3
2019-05-20T17:51:01.238Z,41583.3
2019-05-20T17:52:01.106Z,41449.9
2019-05-20T17:53:01.103Z,41368.2
2019-05-20T17:54:01.331Z,41323.9
2019-05-20T17:55:01.129Z,41304.9
2019-05-20T17:56:06.142Z,41299.9
2019-05-20T17:57:02.889Z,41300.4
2019-05-20T17:58:01.108Z,41301.1
2019-05-20T17:59:01.255Z,41286.1
2019-05-20T18:00:01.108Z,41243.5
2019-05-20T18:01:15.134Z,41167.4
2019-05-20T18:02:01.075Z,41070.3
2019-05-20T18:03:01.102Z,40959.7
2019-05-20T18:04:01.279Z,40842.9
2019-05-20T18:05:01.194Z,40722.9
2019-05-20T18:06:01.099Z,40606.0
2019-05-20T18:07:01.124Z,40489.8
2019-05-20T18:08:01.109Z,40365.5
2019-05-20T18:10:01.088Z,40219.1
2019-05-20T18:11:01.058Z,40067.6
2019-05-20T18:12:01.110Z,39917.7
2019-05-20T18:13:01.090Z,39773.0
2019-05-20T18:14:01.372Z,39638.3
2019-05-20T18:15:01.091Z,39520.5
2019-05-20T18:16:01.110Z,39428.9
2019-05-20T18:17:01.114Z,39372.9
2019-05-20T18:18:01.093Z,39339.1
2019-05-20T18:19:01.244Z,39314.7
2019-05-20T18:20:01.091Z,39291.9
2019-05-20T18:21:01.091Z,39261.7
2019-05-20T18:22:01.999Z,39215.9
2019-05-20T18:23:01.094Z,39154.3
2019-05-20T18:24:01.256Z,39077.5
2019-05-20T18:25:01.095Z,38996.9
2019-05-20T18:26:03.414Z,38895.3
2019-05-20T18:27:01.122Z,38766.1
2019-05-20T18:28:01.103Z,38604.4
2019-05-20T18:29:01.249Z,38400.5
2019-05-20T18:30:01.098Z,38145.4
2019-05-20T18:31:01.098Z,37825.4
2019-05-20T18:32:01.119Z,37430.4
2019-05-20T18:33:01.097Z,36952.1
2019-05-20T18:34:01.312Z,36389.3
2019-05-20T18:35:01.103Z,35744.5
2019-05-20T18:36:01.097Z,35023.1
2019-05-20T18:37:06.104Z,34227.8
2019-05-20T18:38:01.101Z,33363.1
2019-05-20T18:39:01.254Z,32440.5
2019-05-20T18:40:13.080Z,31470.5
2019-05-20T18:41:01.099Z,30463.1
2019-05-20T18:42:01.132Z,29427.6
2019-05-20T18:43:01.110Z,28368.3
2019-05-20T18:44:01.649Z,27290.6
2019-05-20T18:45:01.076Z,26199.7
2019-05-20T18:46:01.075Z,25106.3
2019-05-20T18:47:01.128Z,24022.1
2019-05-20T18:48:01.100Z,22956.7
2019-05-20T18:49:01.321Z,21916.9
2019-05-20T18:50:01.100Z,20905.8
2019-05-20T18:51:01.097Z,19925.3
2019-05-20T18:52:01.133Z,18978.9
2019-05-20T18:53:01.109Z,18068.4
2019-05-20T18:54:01.250Z,17195.4
2019-05-20T18:55:01.105Z,16361.5
2019-05-20T18:56:01.105Z,15567.2
2019-05-20T18:57:01.136Z,14812.9
2019-05-20T18:58:01.117Z,14099.6
2019-05-20T19:00:01.105Z,13403.5
2019-05-20T19:01:01.095Z,12750.7
2019-05-20T19:02:04.922Z,12140.4
2019-05-20T19:03:01.118Z,11566.4
2019-05-20T19:04:01.267Z,11025.1
2019-05-20T19:05:01.098Z,10513.7
2019-05-20T19:06:01.094Z,10029.7
2019-05-20T19:07:01.097Z,9569.3
2019-05-20T19:08:01.123Z,9130.1
2019-05-20T19:09:01.265Z,8709.0
2019-05-20T19:10:01.096Z,8303.5
2019-05-20T19:11:01.126Z,7911.3
2019-05-20T19:12:01.106Z,7532.7
2019-05-20T19:13:01.146Z,7166.3
2019-05-20T19:14:01.271Z,6811.9
2019-05-20T19:15:02.068Z,6494.5
2019-05-20T19:16:01.101Z,6189.3
2019-05-20T19:17:01.100Z,5896.6
2019-05-20T19:18:01.100Z,5617.1
2019-05-20T19:19:01.257Z,5349.1
2019-05-20T19:20:01.100Z,5089.5
2019-05-20T19:21:01.102Z,4837.9
2019-05-20T19:22:01.106Z,4596.3
2019-05-20T19:23:06.102Z,4367.2
2019-05-20T19:24:01.329Z,4152.6
2019-05-20T19:25:01.940Z,3952.8
2019-05-20T19:26:01.103Z,3766.5
2019-05-20T19:27:01.103Z,3590.8
2019-05-20T19:28:06.108Z,3423.2
2019-05-20T19:29:01.253Z,3261.3
2019-05-20T19:30:01.104Z,3103.9
2019-05-20T19:31:01.103Z,2949.9
2019-05-20T19:32:02.265Z,2798.7
2019-05-20T19:33:06.112Z,2651.0
2019-05-20T19:34:01.251Z,2508.9
2019-05-20T19:35:01.105Z,2374.9
2019-05-20T19:36:01.111Z,2249.2
2019-05-20T19:37:01.168Z,2129.7
2019-05-20T19:38:06.139Z,2013.8
2019-05-20T19:39:01.327Z,1899.1
2019-05-20T19:40:01.085Z,1784.9
2019-05-20T19:41:01.126Z,1671.5
2019-05-20T19:42:01.075Z,1559.9
2019-05-20T19:43:01.129Z,1451.3
2019-05-20T19:44:01.252Z,1346.9
2019-05-20T19:45:01.107Z,1246.9
2019-05-20T19:46:01.111Z,1151.2
2019-05-20T19:47:01.085Z,1059.9
2019-05-20T19:48:06.118Z,972.6
2019-05-20T19:49:01.329Z,889.6
2019-05-20T19:51:01.093Z,808.4
2019-05-20T19:52:01.092Z,732.3
2019-05-20T19:53:01.121Z,661.4
2019-05-20T19:54:01.092Z,595.7
2019-05-20T19:55:01.243Z,534.9
2019-05-20T19:56:01.121Z,479.0
2019-05-20T19:57:01.092Z,427.5
2019-05-20T19:58:01.097Z,380.2
2019-05-20T19:59:01.096Z,336.9
2019-05-20T20:00:01.340Z,297.5
2019-05-20T20:01:01.098Z,261.9
2019-05-20T20:02:01.101Z,229.9
2019-05-20T20:03:01.101Z,201.2
2019-05-20T20:04:01.138Z,175.6
2019-05-20T20:05:01.345Z,152.8
2019-05-20T20:06:01.107Z,135.3
2019-05-20T20:07:01.097Z,119.9
2019-05-20T20:08:01.140Z,106.2
2019-05-20T20:09:01.100Z,94.1
2019-05-20T20:10:01.255Z,83.3
2019-05-20T20:11:01.118Z,73.8
2019-05-20T20:12:01.105Z,65.4
2019-05-20T20:13:06.113Z,57.9
2019-05-20T20:14:01.104Z,51.4
2019-05-20T20:15:01.303Z,45.6
2019-05-20T20:16:01.104Z,40.5
2019-05-20T20:17:01.105Z,35.9
2019-05-20T20:18:06.111Z,31.9
2019-05-20T20:19:01.108Z,28.3
2019-05-20T20:20:01.259Z,25.2
2019-05-20T20:21:01.125Z,22.4
2019-05-20T20:22:01.106Z,19.9
2019-05-20T20:23:01.128Z,17.7
2019-05-20T20:24:01.106Z,15.8
2019-05-20T20:25:01.318Z,14.1
2019-05-20T20:26:01.103Z,12.5
2019-05-20T20:27:06.107Z,11.1
2019-05-20T20:28:01.132Z,9.9
2019-05-20T20:29:01.115Z,8.8
2019-05-20T20:30:01.260Z,7.8
2019-05-20T20:31:01.111Z,6.9
2019-05-20T20:32:06.108Z,6.2
2019-05-20T20:33:01.114Z,5.5
2019-05-20T20:34:01.106Z,4.9
2019-05-20T20:35:01.255Z,4.4
2019-05-20T20:36:01.114Z,3.9
2019-05-20T20:37:01.127Z,3.5
2019-05-20T20:38:01.129Z,3.1
2019-05-20T20:39:01.111Z,2.8
2019-05-20T20:40:01.264Z,2.5
2019-05-20T20:41:01.110Z,2.3
2019-05-20T20:42:01.129Z,2.1
2019-05-20T20:43:01.114Z,1.9
2019-05-20T20:44:01.112Z,1.7
2019-05-20T20:45:01.259Z,1.6
2019-05-20T20:46:01.132Z,1.5
2019-05-20T20:47:01.130Z,1.3
2019-05-20T20:49:01.109Z,1.2
2019-05-20T20:50:01.474Z,1.1
2019-05-20T20:51:01.108Z,0.9
2019-05-20T20:52:01.154Z,0.8
2019-05-20T20:53:01.116Z,0.7
2019-05-20T20:55:01.281Z,0.6
2019-05-20T20:56:01.110Z,0.5
2019-05-20T20:58:01.106Z,0.4
2019-05-20T20:59:01.104Z,0.3
2019-05-20T21:00:01.332Z,0.3
2019-05-20T21:01:01.106Z,0.2
2019-05-20T21:03:01.166Z,0.1
